sensor_id;sensor_type;location;lat;lon;timestamp;P1;durP1;ratioP1;P2;durP2;ratioP2
45887;SDS011;31595;51.418;7.572;2022-10-16T00:01:14;3.45;;;2.53;;
45887;SDS011;31595;51.418;7.572;2022-10-16T00:03:49;3.80;;;2.70;;
45887;SDS011;31595;51.418;7.572;2022-10-16T00:06:19;4.75;;;2.53;;
45887;SDS011;31595;51.418;7.572;2022-10-16T00:08:47;5.03;;;2.63;;
45887;SDS011;31595;51.418;7.572;2022-10-16T00:11:16;4.32;;;2.35;;
45887;SDS011;31595;51.418;7.572;2022-10-16T00:13:45;5.82;;;2.83;;
45887;SDS011;31595;51.418;7.572;2022-10-16T00:16:14;4.83;;;2.70;;
45887;SDS011;31595;51.418;7.572;2022-10-16T00:18:42;3.63;;;2.90;;
45887;SDS011;31595;51.418;7.572;2022-10-16T00:21:11;4.22;;;2.70;;
45887;SDS011;31595;51.418;7.572;2022-10-16T00:23:41;4.80;;;2.50;;
45887;SDS011;31595;51.418;7.572;2022-10-16T00:26:09;4.30;;;2.65;;
45887;SDS011;31595;51.418;7.572;2022-10-16T00:28:39;4.38;;;2.60;;
45887;SDS011;31595;51.418;7.572;2022-10-16T00:31:08;3.80;;;2.35;;
45887;SDS011;31595;51.418;7.572;2022-10-16T00:33:37;3.75;;;2.50;;
45887;SDS011;31595;51.418;7.572;2022-10-16T00:36:06;7.93;;;2.42;;
45887;SDS011;31595;51.418;7.572;2022-10-16T00:38:34;3.03;;;2.07;;
45887;SDS011;31595;51.418;7.572;2022-10-16T00:41:05;4.40;;;2.40;;
45887;SDS011;31595;51.418;7.572;2022-10-16T00:43:37;4.05;;;2.30;;
45887;SDS011;31595;51.418;7.572;2022-10-16T00:46:10;3.00;;;2.33;;
45887;SDS011;31595;51.418;7.572;2022-10-16T00:48:45;3.55;;;2.10;;
45887;SDS011;31595;51.418;7.572;2022-10-16T00:51:19;3.80;;;2.10;;
45887;SDS011;31595;51.418;7.572;2022-10-16T00:53:49;4.63;;;2.00;;
45887;SDS011;31595;51.418;7.572;2022-10-16T00:56:21;3.10;;;2.10;;
45887;SDS011;31595;51.418;7.572;2022-10-16T00:58:52;2.13;;;1.58;;
45887;SDS011;31595;51.418;7.572;2022-10-16T01:01:19;5.10;;;1.50;;
45887;SDS011;31595;51.418;7.572;2022-10-16T01:03:47;2.78;;;1.75;;
45887;SDS011;31595;51.418;7.572;2022-10-16T01:06:23;3.35;;;2.08;;
45887;SDS011;31595;51.418;7.572;2022-10-16T01:09:10;4.00;;;2.00;;
45887;SDS011;31595;51.418;7.572;2022-10-16T01:11:44;3.08;;;2.25;;
45887;SDS011;31595;51.418;7.572;2022-10-16T01:14:19;2.88;;;2.05;;
45887;SDS011;31595;51.418;7.572;2022-10-16T01:16:52;3.13;;;1.70;;
45887;SDS011;31595;51.418;7.572;2022-10-16T01:19:26;3.75;;;1.80;;
45887;SDS011;31595;51.418;7.572;2022-10-16T01:22:05;5.43;;;2.38;;
45887;SDS011;31595;51.418;7.572;2022-10-16T01:24:38;4.20;;;2.70;;
45887;SDS011;31595;51.418;7.572;2022-10-16T01:27:11;2.58;;;1.65;;
45887;SDS011;31595;51.418;7.572;2022-10-16T01:29:46;5.57;;;1.90;;
45887;SDS011;31595;51.418;7.572;2022-10-16T01:32:20;4.35;;;1.80;;
45887;SDS011;31595;51.418;7.572;2022-10-16T01:34:56;3.47;;;1.50;;
45887;SDS011;31595;51.418;7.572;2022-10-16T01:37:29;5.07;;;2.00;;
45887;SDS011;31595;51.418;7.572;2022-10-16T01:40:03;2.88;;;1.60;;
45887;SDS011;31595;51.418;7.572;2022-10-16T01:42:37;4.45;;;2.28;;
45887;SDS011;31595;51.418;7.572;2022-10-16T01:45:09;3.10;;;1.63;;
45887;SDS011;31595;51.418;7.572;2022-10-16T01:47:40;4.70;;;1.95;;
45887;SDS011;31595;51.418;7.572;2022-10-16T01:50:09;3.22;;;1.60;;
45887;SDS011;31595;51.418;7.572;2022-10-16T01:52:39;4.35;;;1.52;;
45887;SDS011;31595;51.418;7.572;2022-10-16T01:55:10;3.17;;;1.58;;
45887;SDS011;31595;51.418;7.572;2022-10-16T01:57:43;2.17;;;1.50;;
45887;SDS011;31595;51.418;7.572;2022-10-16T02:00:14;4.70;;;1.63;;
45887;SDS011;31595;51.418;7.572;2022-10-16T02:02:46;2.28;;;1.40;;
45887;SDS011;31595;51.418;7.572;2022-10-16T02:05:18;2.50;;;1.40;;
45887;SDS011;31595;51.418;7.572;2022-10-16T02:07:50;2.55;;;1.40;;
45887;SDS011;31595;51.418;7.572;2022-10-16T02:10:17;2.45;;;1.70;;
45887;SDS011;31595;51.418;7.572;2022-10-16T02:12:48;2.33;;;1.60;;
45887;SDS011;31595;51.418;7.572;2022-10-16T02:15:20;2.97;;;1.85;;
45887;SDS011;31595;51.418;7.572;2022-10-16T02:17:47;3.55;;;1.63;;
45887;SDS011;31595;51.418;7.572;2022-10-16T02:20:15;3.72;;;2.10;;
45887;SDS011;31595;51.418;7.572;2022-10-16T02:22:42;3.17;;;1.73;;
45887;SDS011;31595;51.418;7.572;2022-10-16T02:25:13;2.42;;;1.50;;
45887;SDS011;31595;51.418;7.572;2022-10-16T02:27:49;2.25;;;1.73;;
45887;SDS011;31595;51.418;7.572;2022-10-16T02:30:23;2.03;;;1.38;;
45887;SDS011;31595;51.418;7.572;2022-10-16T02:32:54;2.45;;;1.50;;
45887;SDS011;31595;51.418;7.572;2022-10-16T02:35:25;2.00;;;1.40;;
45887;SDS011;31595;51.418;7.572;2022-10-16T02:37:53;2.40;;;1.42;;
45887;SDS011;31595;51.418;7.572;2022-10-16T02:40:22;2.38;;;1.40;;
45887;SDS011;31595;51.418;7.572;2022-10-16T02:42:53;3.05;;;1.55;;
45887;SDS011;31595;51.418;7.572;2022-10-16T02:45:21;4.57;;;1.92;;
45887;SDS011;31595;51.418;7.572;2022-10-16T02:47:49;1.95;;;1.40;;
45887;SDS011;31595;51.418;7.572;2022-10-16T02:50:16;3.33;;;1.55;;
45887;SDS011;31595;51.418;7.572;2022-10-16T02:52:43;2.40;;;1.42;;
45887;SDS011;31595;51.418;7.572;2022-10-16T02:55:11;3.58;;;1.50;;
45887;SDS011;31595;51.418;7.572;2022-10-16T02:57:38;1.83;;;1.40;;
45887;SDS011;31595;51.418;7.572;2022-10-16T03:00:09;2.78;;;1.50;;
45887;SDS011;31595;51.418;7.572;2022-10-16T03:02:38;2.85;;;1.38;;
45887;SDS011;31595;51.418;7.572;2022-10-16T03:05:05;1.92;;;1.48;;
45887;SDS011;31595;51.418;7.572;2022-10-16T03:07:34;1.98;;;1.30;;
45887;SDS011;31595;51.418;7.572;2022-10-16T03:10:01;2.05;;;1.25;;
45887;SDS011;31595;51.418;7.572;2022-10-16T03:12:28;2.90;;;1.20;;
45887;SDS011;31595;51.418;7.572;2022-10-16T03:14:56;2.63;;;1.17;;
45887;SDS011;31595;51.418;7.572;2022-10-16T03:17:25;3.50;;;1.20;;
45887;SDS011;31595;51.418;7.572;2022-10-16T03:19:52;3.80;;;1.25;;
45887;SDS011;31595;51.418;7.572;2022-10-16T03:22:19;2.70;;;1.20;;
45887;SDS011;31595;51.418;7.572;2022-10-16T03:24:46;2.33;;;1.35;;
45887;SDS011;31595;51.418;7.572;2022-10-16T03:27:14;3.20;;;1.20;;
45887;SDS011;31595;51.418;7.572;2022-10-16T03:29:41;3.58;;;1.00;;
45887;SDS011;31595;51.418;7.572;2022-10-16T03:32:08;1.67;;;1.02;;
45887;SDS011;31595;51.418;7.572;2022-10-16T03:34:37;1.75;;;1.10;;
45887;SDS011;31595;51.418;7.572;2022-10-16T03:37:06;2.08;;;1.02;;
45887;SDS011;31595;51.418;7.572;2022-10-16T03:39:33;1.48;;;1.10;;
45887;SDS011;31595;51.418;7.572;2022-10-16T03:42:01;1.95;;;1.10;;
45887;SDS011;31595;51.418;7.572;2022-10-16T03:44:30;2.95;;;1.05;;
45887;SDS011;31595;51.418;7.572;2022-10-16T03:46:57;1.83;;;1.10;;
45887;SDS011;31595;51.418;7.572;2022-10-16T03:49:24;1.60;;;1.10;;
45887;SDS011;31595;51.418;7.572;2022-10-16T03:51:56;1.70;;;1.20;;
45887;SDS011;31595;51.418;7.572;2022-10-16T03:54:23;4.00;;;1.27;;
45887;SDS011;31595;51.418;7.572;2022-10-16T03:56:50;2.88;;;1.00;;
45887;SDS011;31595;51.418;7.572;2022-10-16T03:59:21;2.75;;;1.10;;
45887;SDS011;31595;51.418;7.572;2022-10-16T04:01:48;1.50;;;1.20;;
45887;SDS011;31595;51.418;7.572;2022-10-16T04:04:15;2.50;;;0.95;;
45887;SDS011;31595;51.418;7.572;2022-10-16T04:06:42;1.90;;;0.90;;
45887;SDS011;31595;51.418;7.572;2022-10-16T04:09:11;2.20;;;1.20;;
45887;SDS011;31595;51.418;7.572;2022-10-16T04:11:40;1.45;;;0.93;;
45887;SDS011;31595;51.418;7.572;2022-10-16T04:14:07;2.70;;;1.20;;
45887;SDS011;31595;51.418;7.572;2022-10-16T04:16:35;1.92;;;1.00;;
45887;SDS011;31595;51.418;7.572;2022-10-16T04:19:02;2.65;;;1.08;;
45887;SDS011;31595;51.418;7.572;2022-10-16T04:21:29;2.00;;;0.90;;
45887;SDS011;31595;51.418;7.572;2022-10-16T04:23:56;2.42;;;1.05;;
45887;SDS011;31595;51.418;7.572;2022-10-16T04:26:25;3.17;;;1.00;;
45887;SDS011;31595;51.418;7.572;2022-10-16T04:28:52;3.47;;;0.90;;
45887;SDS011;31595;51.418;7.572;2022-10-16T04:31:20;1.92;;;0.85;;
45887;SDS011;31595;51.418;7.572;2022-10-16T04:33:47;1.50;;;1.00;;
45887;SDS011;31595;51.418;7.572;2022-10-16T04:36:15;2.40;;;0.90;;
45887;SDS011;31595;51.418;7.572;2022-10-16T04:38:42;2.08;;;1.00;;
45887;SDS011;31595;51.418;7.572;2022-10-16T04:41:09;2.15;;;1.00;;
45887;SDS011;31595;51.418;7.572;2022-10-16T04:43:41;1.77;;;1.08;;
45887;SDS011;31595;51.418;7.572;2022-10-16T04:46:08;2.80;;;1.10;;
45887;SDS011;31595;51.418;7.572;2022-10-16T04:48:35;2.05;;;1.00;;
45887;SDS011;31595;51.418;7.572;2022-10-16T04:51:03;2.60;;;0.98;;
45887;SDS011;31595;51.418;7.572;2022-10-16T04:53:30;2.13;;;0.85;;
45887;SDS011;31595;51.418;7.572;2022-10-16T04:55:58;1.80;;;1.02;;
45887;SDS011;31595;51.418;7.572;2022-10-16T04:58:26;2.00;;;1.08;;
45887;SDS011;31595;51.418;7.572;2022-10-16T05:00:54;3.05;;;1.02;;
45887;SDS011;31595;51.418;7.572;2022-10-16T05:03:21;3.25;;;1.05;;
45887;SDS011;31595;51.418;7.572;2022-10-16T05:05:49;1.73;;;1.00;;
45887;SDS011;31595;51.418;7.572;2022-10-16T05:08:16;1.27;;;0.88;;
45887;SDS011;31595;51.418;7.572;2022-10-16T05:10:43;1.40;;;0.85;;
45887;SDS011;31595;51.418;7.572;2022-10-16T05:13:11;1.85;;;0.90;;
45887;SDS011;31595;51.418;7.572;2022-10-16T05:15:38;2.83;;;1.15;;
45887;SDS011;31595;51.418;7.572;2022-10-16T05:18:08;5.47;;;1.10;;
45887;SDS011;31595;51.418;7.572;2022-10-16T05:20:35;1.65;;;0.80;;
45887;SDS011;31595;51.418;7.572;2022-10-16T05:23:02;1.75;;;0.98;;
45887;SDS011;31595;51.418;7.572;2022-10-16T05:25:30;2.33;;;1.33;;
45887;SDS011;31595;51.418;7.572;2022-10-16T05:27:57;1.60;;;1.10;;
45887;SDS011;31595;51.418;7.572;2022-10-16T05:30:24;1.42;;;0.90;;
45887;SDS011;31595;51.418;7.572;2022-10-16T05:32:51;4.25;;;1.20;;
45887;SDS011;31595;51.418;7.572;2022-10-16T05:35:20;3.13;;;1.10;;
45887;SDS011;31595;51.418;7.572;2022-10-16T05:37:48;1.65;;;1.15;;
45887;SDS011;31595;51.418;7.572;2022-10-16T05:40:15;1.73;;;1.05;;
45887;SDS011;31595;51.418;7.572;2022-10-16T05:42:42;2.90;;;1.30;;
45887;SDS011;31595;51.418;7.572;2022-10-16T05:45:10;2.15;;;0.90;;
45887;SDS011;31595;51.418;7.572;2022-10-16T05:47:38;1.83;;;1.10;;
45887;SDS011;31595;51.418;7.572;2022-10-16T05:50:06;2.08;;;1.08;;
45887;SDS011;31595;51.418;7.572;2022-10-16T05:52:35;1.35;;;1.15;;
45887;SDS011;31595;51.418;7.572;2022-10-16T05:55:02;2.47;;;1.30;;
45887;SDS011;31595;51.418;7.572;2022-10-16T05:57:30;1.90;;;1.00;;
45887;SDS011;31595;51.418;7.572;2022-10-16T05:59:57;1.92;;;1.00;;
45887;SDS011;31595;51.418;7.572;2022-10-16T06:02:25;2.10;;;1.10;;
45887;SDS011;31595;51.418;7.572;2022-10-16T06:04:52;1.70;;;1.08;;
45887;SDS011;31595;51.418;7.572;2022-10-16T06:07:20;3.03;;;1.02;;
45887;SDS011;31595;51.418;7.572;2022-10-16T06:09:49;1.50;;;0.82;;
45887;SDS011;31595;51.418;7.572;2022-10-16T06:12:16;2.17;;;0.90;;
45887;SDS011;31595;51.418;7.572;2022-10-16T06:14:44;1.52;;;1.02;;
45887;SDS011;31595;51.418;7.572;2022-10-16T06:17:12;1.80;;;0.98;;
45887;SDS011;31595;51.418;7.572;2022-10-16T06:19:40;2.95;;;1.25;;
45887;SDS011;31595;51.418;7.572;2022-10-16T06:22:07;2.85;;;1.30;;
45887;SDS011;31595;51.418;7.572;2022-10-16T06:24:34;2.00;;;0.90;;
45887;SDS011;31595;51.418;7.572;2022-10-16T06:27:03;3.13;;;1.25;;
45887;SDS011;31595;51.418;7.572;2022-10-16T06:29:31;3.17;;;1.00;;
45887;SDS011;31595;51.418;7.572;2022-10-16T06:31:58;2.00;;;0.93;;
45887;SDS011;31595;51.418;7.572;2022-10-16T06:34:26;3.42;;;1.10;;
45887;SDS011;31595;51.418;7.572;2022-10-16T06:36:53;1.45;;;0.90;;
45887;SDS011;31595;51.418;7.572;2022-10-16T06:39:21;2.75;;;1.00;;
45887;SDS011;31595;51.418;7.572;2022-10-16T06:41:48;2.97;;;1.25;;
45887;SDS011;31595;51.418;7.572;2022-10-16T06:44:17;1.98;;;0.85;;
45887;SDS011;31595;51.418;7.572;2022-10-16T06:46:44;2.10;;;1.10;;
45887;SDS011;31595;51.418;7.572;2022-10-16T06:49:11;2.75;;;1.02;;
45887;SDS011;31595;51.418;7.572;2022-10-16T06:51:39;2.08;;;1.10;;
45887;SDS011;31595;51.418;7.572;2022-10-16T06:54:07;1.85;;;0.80;;
45887;SDS011;31595;51.418;7.572;2022-10-16T06:56:35;2.83;;;0.80;;
45887;SDS011;31595;51.418;7.572;2022-10-16T06:59:03;2.58;;;0.80;;
45887;SDS011;31595;51.418;7.572;2022-10-16T07:01:32;1.90;;;0.90;;
45887;SDS011;31595;51.418;7.572;2022-10-16T07:03:59;2.92;;;0.90;;
45887;SDS011;31595;51.418;7.572;2022-10-16T07:06:30;1.73;;;0.88;;
45887;SDS011;31595;51.418;7.572;2022-10-16T07:09:00;1.55;;;0.90;;
45887;SDS011;31595;51.418;7.572;2022-10-16T07:11:29;2.75;;;0.88;;
45887;SDS011;31595;51.418;7.572;2022-10-16T07:13:56;2.05;;;0.80;;
45887;SDS011;31595;51.418;7.572;2022-10-16T07:16:24;1.30;;;0.65;;
45887;SDS011;31595;51.418;7.572;2022-10-16T07:18:54;2.30;;;1.00;;
45887;SDS011;31595;51.418;7.572;2022-10-16T07:21:24;2.72;;;0.90;;
45887;SDS011;31595;51.418;7.572;2022-10-16T07:23:54;1.88;;;0.80;;
45887;SDS011;31595;51.418;7.572;2022-10-16T07:26:23;3.05;;;0.90;;
45887;SDS011;31595;51.418;7.572;2022-10-16T07:28:51;3.28;;;0.93;;
45887;SDS011;31595;51.418;7.572;2022-10-16T07:31:19;2.05;;;1.00;;
45887;SDS011;31595;51.418;7.572;2022-10-16T07:33:47;2.37;;;0.90;;
45887;SDS011;31595;51.418;7.572;2022-10-16T07:36:17;2.03;;;0.80;;
45887;SDS011;31595;51.418;7.572;2022-10-16T07:38:45;1.92;;;0.77;;
45887;SDS011;31595;51.418;7.572;2022-10-16T07:41:14;1.63;;;0.70;;
45887;SDS011;31595;51.418;7.572;2022-10-16T07:43:45;2.65;;;0.85;;
45887;SDS011;31595;51.418;7.572;2022-10-16T07:46:13;1.55;;;0.88;;
45887;SDS011;31595;51.418;7.572;2022-10-16T07:48:42;2.38;;;0.90;;
45887;SDS011;31595;51.418;7.572;2022-10-16T07:51:13;1.85;;;0.80;;
45887;SDS011;31595;51.418;7.572;2022-10-16T07:53:43;2.97;;;0.70;;
45887;SDS011;31595;51.418;7.572;2022-10-16T07:56:10;1.30;;;0.80;;
45887;SDS011;31595;51.418;7.572;2022-10-16T07:58:38;3.37;;;1.03;;
45887;SDS011;31595;51.418;7.572;2022-10-16T08:01:07;1.88;;;0.70;;
45887;SDS011;31595;51.418;7.572;2022-10-16T08:03:36;2.28;;;0.80;;
45887;SDS011;31595;51.418;7.572;2022-10-16T08:06:04;2.05;;;0.70;;
45887;SDS011;31595;51.418;7.572;2022-10-16T08:08:32;1.98;;;0.95;;
45887;SDS011;31595;51.418;7.572;2022-10-16T08:11:00;1.70;;;0.80;;
45887;SDS011;31595;51.418;7.572;2022-10-16T08:13:29;2.70;;;1.10;;
45887;SDS011;31595;51.418;7.572;2022-10-16T08:15:56;1.75;;;0.90;;
45887;SDS011;31595;51.418;7.572;2022-10-16T08:18:24;1.55;;;1.00;;
45887;SDS011;31595;51.418;7.572;2022-10-16T08:20:54;3.40;;;1.10;;
45887;SDS011;31595;51.418;7.572;2022-10-16T08:23:25;1.30;;;0.90;;
45887;SDS011;31595;51.418;7.572;2022-10-16T08:25:55;2.80;;;0.90;;
45887;SDS011;31595;51.418;7.572;2022-10-16T08:28:24;1.67;;;0.90;;
45887;SDS011;31595;51.418;7.572;2022-10-16T08:30:51;1.48;;;0.90;;
45887;SDS011;31595;51.418;7.572;2022-10-16T08:33:18;2.33;;;1.00;;
45887;SDS011;31595;51.418;7.572;2022-10-16T08:35:50;1.88;;;0.90;;
45887;SDS011;31595;51.418;7.572;2022-10-16T08:38:20;1.85;;;0.90;;
45887;SDS011;31595;51.418;7.572;2022-10-16T08:40:47;1.83;;;0.90;;
45887;SDS011;31595;51.418;7.572;2022-10-16T08:43:25;2.40;;;1.00;;
45887;SDS011;31595;51.418;7.572;2022-10-16T08:48:57;1.60;;;1.10;;
45887;SDS011;31595;51.418;7.572;2022-10-16T08:51:27;2.33;;;1.02;;
45887;SDS011;31595;51.418;7.572;2022-10-16T08:53:58;3.35;;;1.00;;
45887;SDS011;31595;51.418;7.572;2022-10-16T08:56:29;1.50;;;1.00;;
45887;SDS011;31595;51.418;7.572;2022-10-16T08:59:00;2.20;;;0.90;;
45887;SDS011;31595;51.418;7.572;2022-10-16T09:01:32;2.55;;;1.08;;
45887;SDS011;31595;51.418;7.572;2022-10-16T09:04:12;1.67;;;0.93;;
45887;SDS011;31595;51.418;7.572;2022-10-16T09:06:54;3.05;;;1.13;;
45887;SDS011;31595;51.418;7.572;2022-10-16T09:09:28;2.85;;;0.90;;
45887;SDS011;31595;51.418;7.572;2022-10-16T09:12:03;2.35;;;0.80;;
45887;SDS011;31595;51.418;7.572;2022-10-16T09:14:43;2.38;;;0.80;;
45887;SDS011;31595;51.418;7.572;2022-10-16T09:17:23;2.88;;;0.90;;
45887;SDS011;31595;51.418;7.572;2022-10-16T09:19:58;3.53;;;1.08;;
45887;SDS011;31595;51.418;7.572;2022-10-16T09:22:40;2.67;;;0.90;;
45887;SDS011;31595;51.418;7.572;2022-10-16T09:25:10;2.30;;;0.98;;
45887;SDS011;31595;51.418;7.572;2022-10-16T09:27:39;1.80;;;0.90;;
45887;SDS011;31595;51.418;7.572;2022-10-16T09:30:13;3.30;;;1.00;;
45887;SDS011;31595;51.418;7.572;2022-10-16T09:32:41;2.00;;;1.05;;
45887;SDS011;31595;51.418;7.572;2022-10-16T09:35:14;3.22;;;0.90;;
45887;SDS011;31595;51.418;7.572;2022-10-16T09:37:44;2.45;;;1.10;;
45887;SDS011;31595;51.418;7.572;2022-10-16T09:40:24;4.43;;;1.45;;
45887;SDS011;31595;51.418;7.572;2022-10-16T09:42:56;3.13;;;1.00;;
45887;SDS011;31595;51.418;7.572;2022-10-16T09:45:29;2.13;;;1.00;;
45887;SDS011;31595;51.418;7.572;2022-10-16T09:47:56;2.92;;;1.10;;
45887;SDS011;31595;51.418;7.572;2022-10-16T09:50:24;4.07;;;1.17;;
45887;SDS011;31595;51.418;7.572;2022-10-16T09:53:05;2.83;;;1.10;;
45887;SDS011;31595;51.418;7.572;2022-10-16T09:55:35;2.97;;;0.88;;
45887;SDS011;31595;51.418;7.572;2022-10-16T09:58:02;3.08;;;1.40;;
45887;SDS011;31595;51.418;7.572;2022-10-16T10:00:31;2.03;;;0.80;;
45887;SDS011;31595;51.418;7.572;2022-10-16T10:02:58;2.45;;;1.08;;
45887;SDS011;31595;51.418;7.572;2022-10-16T10:05:26;2.47;;;1.02;;
45887;SDS011;31595;51.418;7.572;2022-10-16T10:07:57;2.28;;;0.95;;
45887;SDS011;31595;51.418;7.572;2022-10-16T10:10:26;1.90;;;1.10;;
45887;SDS011;31595;51.418;7.572;2022-10-16T10:12:57;2.40;;;1.10;;
45887;SDS011;31595;51.418;7.572;2022-10-16T10:15:25;3.60;;;1.10;;
45887;SDS011;31595;51.418;7.572;2022-10-16T10:18:01;1.92;;;0.90;;
45887;SDS011;31595;51.418;7.572;2022-10-16T10:20:30;1.60;;;0.80;;
45887;SDS011;31595;51.418;7.572;2022-10-16T10:23:00;2.33;;;1.23;;
45887;SDS011;31595;51.418;7.572;2022-10-16T10:25:39;2.13;;;1.25;;
45887;SDS011;31595;51.418;7.572;2022-10-16T10:31:20;2.95;;;1.00;;
45887;SDS011;31595;51.418;7.572;2022-10-16T10:33:54;1.67;;;0.90;;
45887;SDS011;31595;51.418;7.572;2022-10-16T10:36:30;6.07;;;1.20;;
45887;SDS011;31595;51.418;7.572;2022-10-16T10:39:04;2.17;;;1.00;;
45887;SDS011;31595;51.418;7.572;2022-10-16T10:44:47;2.65;;;1.00;;
45887;SDS011;31595;51.418;7.572;2022-10-16T10:47:27;1.98;;;1.17;;
45887;SDS011;31595;51.418;7.572;2022-10-16T10:50:10;3.22;;;1.25;;
45887;SDS011;31595;51.418;7.572;2022-10-16T10:52:49;1.40;;;0.90;;
45887;SDS011;31595;51.418;7.572;2022-10-16T10:55:25;2.10;;;0.93;;
45887;SDS011;31595;51.418;7.572;2022-10-16T10:58:05;2.78;;;0.90;;
45887;SDS011;31595;51.418;7.572;2022-10-16T11:00:55;3.40;;;1.00;;
45887;SDS011;31595;51.418;7.572;2022-10-16T11:03:31;1.40;;;0.90;;
45887;SDS011;31595;51.418;7.572;2022-10-16T11:06:11;2.22;;;0.95;;
45887;SDS011;31595;51.418;7.572;2022-10-16T11:08:44;2.08;;;1.23;;
45887;SDS011;31595;51.418;7.572;2022-10-16T11:11:17;2.22;;;1.15;;
45887;SDS011;31595;51.418;7.572;2022-10-16T11:13:52;1.88;;;1.02;;
45887;SDS011;31595;51.418;7.572;2022-10-16T11:16:26;2.08;;;1.15;;
45887;SDS011;31595;51.418;7.572;2022-10-16T11:18:56;2.25;;;0.90;;
45887;SDS011;31595;51.418;7.572;2022-10-16T11:21:33;2.35;;;1.30;;
45887;SDS011;31595;51.418;7.572;2022-10-16T11:24:11;1.70;;;0.90;;
45887;SDS011;31595;51.418;7.572;2022-10-16T11:26:45;1.65;;;1.00;;
45887;SDS011;31595;51.418;7.572;2022-10-16T11:29:16;3.47;;;1.10;;
45887;SDS011;31595;51.418;7.572;2022-10-16T11:31:49;1.52;;;1.08;;
45887;SDS011;31595;51.418;7.572;2022-10-16T11:34:21;1.60;;;0.82;;
45887;SDS011;31595;51.418;7.572;2022-10-16T11:36:55;3.38;;;1.40;;
45887;SDS011;31595;51.418;7.572;2022-10-16T11:39:28;2.83;;;1.10;;
45887;SDS011;31595;51.418;7.572;2022-10-16T11:41:58;1.40;;;1.00;;
45887;SDS011;31595;51.418;7.572;2022-10-16T11:44:38;2.10;;;0.90;;
45887;SDS011;31595;51.418;7.572;2022-10-16T11:47:23;1.83;;;1.00;;
45887;SDS011;31595;51.418;7.572;2022-10-16T11:49:56;1.73;;;1.23;;
45887;SDS011;31595;51.418;7.572;2022-10-16T11:52:30;2.83;;;1.15;;
45887;SDS011;31595;51.418;7.572;2022-10-16T11:55:05;1.50;;;1.00;;
45887;SDS011;31595;51.418;7.572;2022-10-16T11:57:42;2.03;;;1.17;;
45887;SDS011;31595;51.418;7.572;2022-10-16T12:00:17;1.80;;;1.20;;
45887;SDS011;31595;51.418;7.572;2022-10-16T12:02:51;2.10;;;1.40;;
45887;SDS011;31595;51.418;7.572;2022-10-16T12:05:26;1.40;;;0.95;;
45887;SDS011;31595;51.418;7.572;2022-10-16T12:08:04;4.07;;;1.00;;
45887;SDS011;31595;51.418;7.572;2022-10-16T12:10:37;2.45;;;1.10;;
45887;SDS011;31595;51.418;7.572;2022-10-16T12:16:03;1.83;;;1.40;;
45887;SDS011;31595;51.418;7.572;2022-10-16T12:18:32;2.47;;;2.20;;
45887;SDS011;31595;51.418;7.572;2022-10-16T12:20:59;2.55;;;2.22;;
45887;SDS011;31595;51.418;7.572;2022-10-16T12:23:32;3.10;;;2.90;;
45887;SDS011;31595;51.418;7.572;2022-10-16T12:26:03;2.35;;;2.15;;
45887;SDS011;31595;51.418;7.572;2022-10-16T12:28:32;1.52;;;0.82;;
45887;SDS011;31595;51.418;7.572;2022-10-16T12:31:01;2.90;;;2.60;;
45887;SDS011;31595;51.418;7.572;2022-10-16T12:33:30;2.50;;;2.10;;
45887;SDS011;31595;51.418;7.572;2022-10-16T12:36:00;2.42;;;1.17;;
45887;SDS011;31595;51.418;7.572;2022-10-16T12:38:30;2.60;;;1.70;;
45887;SDS011;31595;51.418;7.572;2022-10-16T12:41:05;2.05;;;1.77;;
45887;SDS011;31595;51.418;7.572;2022-10-16T12:43:35;2.30;;;1.60;;
45887;SDS011;31595;51.418;7.572;2022-10-16T12:46:18;2.42;;;1.42;;
45887;SDS011;31595;51.418;7.572;2022-10-16T12:48:49;1.77;;;0.80;;
45887;SDS011;31595;51.418;7.572;2022-10-16T12:51:23;2.80;;;2.33;;
45887;SDS011;31595;51.418;7.572;2022-10-16T12:54:03;2.47;;;1.60;;
45887;SDS011;31595;51.418;7.572;2022-10-16T12:56:35;2.33;;;2.08;;
45887;SDS011;31595;51.418;7.572;2022-10-16T12:59:11;2.25;;;2.05;;
45887;SDS011;31595;51.418;7.572;2022-10-16T13:01:51;2.40;;;0.90;;
45887;SDS011;31595;51.418;7.572;2022-10-16T13:04:29;1.98;;;1.50;;
45887;SDS011;31595;51.418;7.572;2022-10-16T13:07:15;2.35;;;1.45;;
45887;SDS011;31595;51.418;7.572;2022-10-16T13:09:59;1.98;;;0.90;;
45887;SDS011;31595;51.418;7.572;2022-10-16T13:12:41;1.35;;;1.25;;
45887;SDS011;31595;51.418;7.572;2022-10-16T13:15:28;1.90;;;1.40;;
45887;SDS011;31595;51.418;7.572;2022-10-16T13:18:09;2.28;;;0.70;;
45887;SDS011;31595;51.418;7.572;2022-10-16T13:20:51;1.60;;;0.80;;
45887;SDS011;31595;51.418;7.572;2022-10-16T13:23:28;1.88;;;1.10;;
45887;SDS011;31595;51.418;7.572;2022-10-16T13:26:12;3.28;;;1.13;;
45887;SDS011;31595;51.418;7.572;2022-10-16T13:28:48;0.98;;;0.50;;
45887;SDS011;31595;51.418;7.572;2022-10-16T13:31:17;1.35;;;0.60;;
45887;SDS011;31595;51.418;7.572;2022-10-16T13:33:47;1.50;;;0.55;;
45887;SDS011;31595;51.418;7.572;2022-10-16T13:36:21;3.08;;;0.80;;
45887;SDS011;31595;51.418;7.572;2022-10-16T13:38:58;2.22;;;0.90;;
45887;SDS011;31595;51.418;7.572;2022-10-16T13:41:29;1.83;;;0.85;;
45887;SDS011;31595;51.418;7.572;2022-10-16T13:43:56;2.05;;;0.70;;
45887;SDS011;31595;51.418;7.572;2022-10-16T13:46:24;3.75;;;1.20;;
45887;SDS011;31595;51.418;7.572;2022-10-16T13:48:58;1.50;;;0.82;;
45887;SDS011;31595;51.418;7.572;2022-10-16T13:51:26;2.22;;;0.95;;
45887;SDS011;31595;51.418;7.572;2022-10-16T13:53:58;3.88;;;1.00;;
45887;SDS011;31595;51.418;7.572;2022-10-16T13:56:27;2.25;;;0.90;;
45887;SDS011;31595;51.418;7.572;2022-10-16T13:58:58;1.58;;;1.15;;
45887;SDS011;31595;51.418;7.572;2022-10-16T14:01:26;2.88;;;1.10;;
45887;SDS011;31595;51.418;7.572;2022-10-16T14:04:00;1.70;;;1.02;;
45887;SDS011;31595;51.418;7.572;2022-10-16T14:06:31;2.38;;;1.00;;
45887;SDS011;31595;51.418;7.572;2022-10-16T14:08:59;2.20;;;0.77;;
45887;SDS011;31595;51.418;7.572;2022-10-16T14:11:34;2.25;;;0.73;;
45887;SDS011;31595;51.418;7.572;2022-10-16T14:14:09;4.47;;;0.82;;
45887;SDS011;31595;51.418;7.572;2022-10-16T14:16:40;1.70;;;1.13;;
45887;SDS011;31595;51.418;7.572;2022-10-16T14:19:13;1.52;;;0.90;;
45887;SDS011;31595;51.418;7.572;2022-10-16T14:21:46;2.08;;;0.73;;
45887;SDS011;31595;51.418;7.572;2022-10-16T14:24:22;1.63;;;0.85;;
45887;SDS011;31595;51.418;7.572;2022-10-16T14:26:54;1.63;;;0.70;;
45887;SDS011;31595;51.418;7.572;2022-10-16T14:29:22;2.00;;;1.30;;
45887;SDS011;31595;51.418;7.572;2022-10-16T14:31:54;2.95;;;1.13;;
45887;SDS011;31595;51.418;7.572;2022-10-16T14:34:23;2.08;;;0.60;;
45887;SDS011;31595;51.418;7.572;2022-10-16T14:36:55;2.08;;;0.60;;
45887;SDS011;31595;51.418;7.572;2022-10-16T14:39:22;1.13;;;0.43;;
45887;SDS011;31595;51.418;7.572;2022-10-16T14:41:55;0.98;;;0.50;;
45887;SDS011;31595;51.418;7.572;2022-10-16T14:44:26;2.78;;;0.50;;
45887;SDS011;31595;51.418;7.572;2022-10-16T14:47:08;2.28;;;0.60;;
45887;SDS011;31595;51.418;7.572;2022-10-16T14:49:40;1.83;;;0.82;;
45887;SDS011;31595;51.418;7.572;2022-10-16T14:52:08;1.73;;;0.73;;
45887;SDS011;31595;51.418;7.572;2022-10-16T14:54:38;1.95;;;0.63;;
45887;SDS011;31595;51.418;7.572;2022-10-16T14:57:14;1.75;;;0.70;;
45887;SDS011;31595;51.418;7.572;2022-10-16T14:59:44;3.00;;;0.70;;
45887;SDS011;31595;51.418;7.572;2022-10-16T15:02:15;0.93;;;0.50;;
45887;SDS011;31595;51.418;7.572;2022-10-16T15:04:46;1.73;;;0.65;;
45887;SDS011;31595;51.418;7.572;2022-10-16T15:07:13;1.58;;;0.60;;
45887;SDS011;31595;51.418;7.572;2022-10-16T15:09:41;1.90;;;0.50;;
45887;SDS011;31595;51.418;7.572;2022-10-16T15:12:09;3.00;;;0.80;;
45887;SDS011;31595;51.418;7.572;2022-10-16T15:14:37;3.30;;;0.65;;
45887;SDS011;31595;51.418;7.572;2022-10-16T15:17:04;0.98;;;0.40;;
45887;SDS011;31595;51.418;7.572;2022-10-16T15:19:31;1.42;;;0.68;;
45887;SDS011;31595;51.418;7.572;2022-10-16T15:21:59;1.42;;;0.52;;